createdAt,value
2018-07-19T00:01:03.188Z,51.57
2018-07-19T00:03:37.178Z,51.39
2018-07-19T00:06:11.256Z,50.87
2018-07-19T00:08:45.200Z,49.76
2018-07-19T00:11:19.318Z,50.13
2018-07-19T00:13:53.334Z,50.72
2018-07-19T00:16:27.477Z,50.37
2018-07-19T00:19:01.518Z,50.48
2018-07-19T00:21:35.466Z,50.48
2018-07-19T00:24:09.461Z,50.71
2018-07-19T00:26:43.560Z,50.49
2018-07-19T00:29:17.511Z,51.18
2018-07-19T00:31:51.622Z,50.93
2018-07-19T00:34:25.760Z,51.02
2018-07-19T00:36:59.730Z,50.99
2018-07-19T00:39:33.691Z,50.67
2018-07-19T00:42:07.876Z,50.75
2018-07-19T00:44:41.827Z,51.10
2018-07-19T00:47:15.900Z,51.13
2018-07-19T00:49:50.056Z,50.82
2018-07-19T00:52:24.030Z,51.32
2018-07-19T00:54:57.933Z,50.71
2018-07-19T00:57:31.969Z,51.17
2018-07-19T01:00:06.177Z,51.37
2018-07-19T01:02:40.758Z,51.33
2018-07-19T01:05:14.755Z,51.42
2018-07-19T01:07:48.729Z,51.74
2018-07-19T01:10:22.659Z,52.57
2018-07-19T01:12:56.828Z,52.92
2018-07-19T01:15:35.973Z,53.67
2018-07-19T01:18:10.073Z,54.41
2018-07-19T01:20:44.166Z,54.47
2018-07-19T01:23:18.302Z,53.63
2018-07-19T01:25:52.435Z,53.45
2018-07-19T01:28:26.641Z,53.10
2018-07-19T01:31:00.684Z,53.26
2018-07-19T01:33:34.857Z,53.35
2018-07-19T01:36:08.708Z,53.52
2018-07-19T01:38:42.711Z,53.33
2018-07-19T01:43:33.104Z,53.95
2018-07-19T01:46:07.041Z,54.22
2018-07-19T01:48:41.053Z,54.29
2018-07-19T01:51:15.060Z,53.19
2018-07-19T01:53:49.064Z,53.16
2018-07-19T01:56:23.085Z,53.43
2018-07-19T01:58:57.185Z,53.38
2018-07-19T02:01:31.165Z,53.32
2018-07-19T02:04:05.144Z,53.18
2018-07-19T02:06:39.248Z,53.39
2018-07-19T02:09:13.304Z,53.84
2018-07-19T02:11:47.449Z,53.72
2018-07-19T02:14:21.496Z,54.23
2018-07-19T02:16:55.719Z,53.67
2018-07-19T02:19:29.682Z,53.75
2018-07-19T02:22:03.804Z,53.88
2018-07-19T02:24:37.697Z,53.72
2018-07-19T02:27:11.640Z,53.60
2018-07-19T02:29:45.558Z,53.82
2018-07-19T02:32:19.528Z,53.60
2018-07-19T02:34:53.399Z,53.71
2018-07-19T02:37:27.394Z,53.34
2018-07-19T02:40:01.476Z,52.81
2018-07-19T02:42:35.442Z,53.44
2018-07-19T02:45:09.370Z,53.91
2018-07-19T02:47:43.502Z,54.48
2018-07-19T02:50:17.377Z,54.58
2018-07-19T02:52:51.391Z,55.01
2018-07-19T02:55:25.550Z,54.92
2018-07-19T02:57:59.753Z,54.89
2018-07-19T03:00:33.639Z,55.56
2018-07-19T03:03:07.640Z,55.65
2018-07-19T03:05:41.609Z,56.38
2018-07-19T03:08:15.679Z,56.37
2018-07-19T03:10:49.779Z,56.67
2018-07-19T03:13:23.820Z,56.89
2018-07-19T03:15:57.800Z,56.69
2018-07-19T03:18:32.030Z,56.04
2018-07-19T03:21:05.996Z,56.63
2018-07-19T03:23:40.016Z,56.09
2018-07-19T03:26:13.971Z,55.76
2018-07-19T03:28:47.914Z,55.86
2018-07-19T03:31:21.887Z,55.83
2018-07-19T03:33:55.919Z,54.49
2018-07-19T03:36:29.763Z,54.29
2018-07-19T03:39:05.597Z,53.84
2018-07-19T03:41:39.631Z,52.91
2018-07-19T03:44:13.552Z,52.43
2018-07-19T03:46:47.489Z,52.28
2018-07-19T03:49:21.609Z,52.32
2018-07-19T03:51:55.654Z,51.69
2018-07-19T03:54:30.029Z,50.94
2018-07-19T03:57:04.104Z,51.07
2018-07-19T03:59:38.128Z,54.75
2018-07-19T04:02:12.046Z,54.12
2018-07-19T04:04:46.013Z,54.10
2018-07-19T04:07:20.200Z,54.09
2018-07-19T04:09:54.367Z,55.26
2018-07-19T04:12:28.376Z,55.25
2018-07-19T04:15:03.039Z,55.41
2018-07-19T04:17:51.402Z,56.21
2018-07-19T04:20:26.649Z,55.84
2018-07-19T04:23:00.543Z,56.15
2018-07-19T04:25:34.500Z,56.39
2018-07-19T04:28:08.421Z,55.55
2018-07-19T04:30:42.773Z,55.90
2018-07-19T04:33:16.728Z,56.61
2018-07-19T04:35:50.709Z,56.47
2018-07-19T04:38:24.785Z,57.10
2018-07-19T04:40:58.960Z,56.34
2018-07-19T04:43:32.899Z,56.54
2018-07-19T04:46:06.916Z,55.82
2018-07-19T04:48:40.844Z,55.68
2018-07-19T04:51:26.868Z,55.62
2018-07-19T04:54:00.722Z,55.21
2018-07-19T04:56:35.563Z,54.76
2018-07-19T04:59:09.596Z,54.93
2018-07-19T05:01:43.926Z,54.96
2018-07-19T05:04:18.025Z,54.45
2018-07-19T05:06:52.042Z,54.17
2018-07-19T05:09:26.091Z,54.46
2018-07-19T05:12:00.126Z,54.54
2018-07-19T05:14:34.031Z,54.57
2018-07-19T05:17:08.100Z,54.70
2018-07-19T05:19:42.197Z,54.59
2018-07-19T05:22:16.316Z,54.76
2018-07-19T05:24:51.203Z,54.25
2018-07-19T05:27:25.508Z,54.45
2018-07-19T05:29:59.609Z,55.37
2018-07-19T05:32:33.711Z,55.46
2018-07-19T05:35:07.771Z,55.42
2018-07-19T05:37:41.771Z,55.25
2018-07-19T05:40:15.824Z,55.18
2018-07-19T05:42:50.059Z,55.66
2018-07-19T05:45:24.084Z,55.56
2018-07-19T05:47:57.946Z,55.05
2018-07-19T05:50:31.889Z,55.35
2018-07-19T05:53:05.990Z,54.41
2018-07-19T05:55:39.954Z,54.32
2018-07-19T05:58:14.024Z,54.17
2018-07-19T06:00:48.049Z,54.26
2018-07-19T06:03:22.152Z,54.09
2018-07-19T06:05:56.025Z,54.40
2018-07-19T06:08:30.109Z,54.01
2018-07-19T06:11:04.164Z,53.72
2018-07-19T06:13:38.279Z,53.93
2018-07-19T06:16:12.436Z,54.04
2018-07-19T06:18:46.449Z,53.16
2018-07-19T06:21:20.353Z,53.08
2018-07-19T06:23:54.413Z,52.54
2018-07-19T06:26:28.401Z,51.91
2018-07-19T06:30:26.966Z,52.46
2018-07-19T06:33:00.910Z,51.76
2018-07-19T06:35:34.848Z,51.40
2018-07-19T06:38:08.825Z,51.14
2018-07-19T06:40:36.805Z,51.16
2018-07-19T06:43:04.838Z,50.49
2018-07-19T06:45:32.781Z,50.50
2018-07-19T06:48:00.791Z,51.04
2018-07-19T06:50:28.702Z,50.09
2018-07-19T06:52:56.697Z,49.98
2018-07-19T06:55:24.712Z,50.14
2018-07-19T06:57:52.637Z,51.41
2018-07-19T07:00:20.549Z,49.57
2018-07-19T07:02:48.520Z,48.78
2018-07-19T07:05:16.446Z,49.81
2018-07-19T07:07:44.422Z,50.24
2018-07-19T07:10:12.375Z,50.45
2018-07-19T07:12:40.305Z,50.61
2018-07-19T07:15:08.565Z,50.73
2018-07-19T07:17:36.527Z,50.23
2018-07-19T07:20:04.912Z,50.95
2018-07-19T07:22:32.805Z,50.74
2018-07-19T07:25:00.736Z,51.34
2018-07-19T07:27:28.679Z,51.23
2018-07-19T07:29:56.593Z,51.50
2018-07-19T07:32:24.566Z,51.59
2018-07-19T07:34:52.496Z,50.69
2018-07-19T07:37:20.421Z,50.83
2018-07-19T07:39:48.381Z,50.75
2018-07-19T07:42:16.285Z,51.04
2018-07-19T07:44:44.210Z,50.77
2018-07-19T07:47:12.274Z,51.86
2018-07-19T07:49:40.320Z,52.12
2018-07-19T07:52:08.564Z,52.50
2018-07-19T07:54:36.720Z,53.31
2018-07-19T07:57:04.750Z,53.41
2018-07-19T07:59:34.521Z,54.53
2018-07-19T08:02:02.486Z,54.59
2018-07-19T08:04:30.825Z,54.92
2018-07-19T08:06:58.761Z,55.56
2018-07-19T08:09:26.744Z,55.12
2018-07-19T08:11:54.700Z,54.41
2018-07-19T08:14:22.977Z,54.25
2018-07-19T08:16:50.993Z,54.90
2018-07-19T08:19:18.915Z,53.97
2018-07-19T08:21:46.827Z,53.67
2018-07-19T08:24:14.849Z,52.53
2018-07-19T08:26:42.767Z,52.61
2018-07-19T08:29:10.747Z,54.15
2018-07-19T08:31:38.673Z,54.67
2018-07-19T08:34:06.783Z,53.81
2018-07-19T08:36:34.706Z,53.41
2018-07-19T08:39:03.484Z,53.00
2018-07-19T08:41:31.393Z,54.30
2018-07-19T08:43:59.309Z,53.57
2018-07-19T08:46:27.284Z,54.37
2018-07-19T08:48:55.196Z,54.57
2018-07-19T08:51:23.165Z,54.48
2018-07-19T08:53:51.156Z,54.53
2018-07-19T08:56:19.062Z,54.36
2018-07-19T08:58:47.057Z,53.90
2018-07-19T09:01:15.176Z,53.14
2018-07-19T09:03:46.430Z,52.41
2018-07-19T09:06:14.393Z,53.81
2018-07-19T09:08:42.390Z,54.22
2018-07-19T09:11:10.396Z,53.42
2018-07-19T09:13:38.317Z,52.83
2018-07-19T09:16:06.369Z,52.73
2018-07-19T09:18:34.321Z,52.91
2018-07-19T09:21:02.280Z,52.55
2018-07-19T09:23:30.296Z,53.39
2018-07-19T09:25:58.233Z,52.79
2018-07-19T09:28:26.260Z,51.03
2018-07-19T09:30:54.220Z,52.14
2018-07-19T09:33:22.128Z,52.07
2018-07-19T09:35:50.085Z,51.61
2018-07-19T09:38:18.150Z,51.41
2018-07-19T09:40:46.156Z,51.25
2018-07-19T09:43:14.045Z,51.30
2018-07-19T09:45:42.245Z,50.87
2018-07-19T09:48:10.181Z,51.78
2018-07-19T09:50:38.097Z,51.84
2018-07-19T09:53:06.184Z,51.30
2018-07-19T09:55:34.177Z,52.85
2018-07-19T09:58:02.128Z,53.60
2018-07-19T10:00:35.581Z,54.23
2018-07-19T10:03:03.593Z,53.56
2018-07-19T10:05:31.525Z,54.44
2018-07-19T10:08:00.185Z,53.52
2018-07-19T10:10:28.113Z,54.38
2018-07-19T10:12:56.038Z,53.75
2018-07-19T10:15:24.033Z,53.38
2018-07-19T10:17:51.979Z,54.01
2018-07-19T10:20:19.949Z,54.11
2018-07-19T10:22:47.934Z,54.21
2018-07-19T10:25:16.930Z,54.10
2018-07-19T10:27:44.877Z,54.15
2018-07-19T10:30:12.987Z,54.69
2018-07-19T10:32:41.256Z,54.83
2018-07-19T10:35:09.144Z,54.21
2018-07-19T10:37:37.090Z,52.59
2018-07-19T10:40:05.030Z,51.76
2018-07-19T10:42:32.945Z,52.58
2018-07-19T10:45:00.916Z,51.61
2018-07-19T10:47:28.863Z,51.30
2018-07-19T10:49:56.795Z,51.80
2018-07-19T10:52:25.426Z,53.01
2018-07-19T10:54:54.096Z,52.84
2018-07-19T10:57:22.054Z,52.94
2018-07-19T10:59:49.959Z,53.14
2018-07-19T11:02:18.006Z,52.72
2018-07-19T11:04:45.915Z,52.25
2018-07-19T11:07:13.887Z,52.30
2018-07-19T11:09:41.845Z,51.75
2018-07-19T11:12:09.743Z,51.56
2018-07-19T11:14:37.798Z,52.39
2018-07-19T11:17:05.747Z,51.52
2018-07-19T11:19:33.641Z,50.75
2018-07-19T11:22:01.565Z,50.25
2018-07-19T11:24:29.441Z,50.34
2018-07-19T11:26:57.429Z,51.21
2018-07-19T11:29:25.364Z,52.13
2018-07-19T11:31:53.249Z,52.49
2018-07-19T11:34:21.133Z,53.18
2018-07-19T11:36:49.161Z,51.84
2018-07-19T11:39:17.085Z,49.93
2018-07-19T11:41:44.983Z,48.48
2018-07-19T11:44:12.909Z,49.79
2018-07-19T11:46:41.366Z,50.09
2018-07-19T11:49:09.229Z,51.04
2018-07-19T11:51:37.271Z,51.05
2018-07-19T11:54:05.222Z,51.30
2018-07-19T11:56:38.523Z,52.47
2018-07-19T11:59:06.440Z,53.34
2018-07-19T12:01:34.512Z,53.29
2018-07-19T12:04:02.592Z,54.48
2018-07-19T12:06:45.511Z,54.13
2018-07-19T12:09:13.447Z,55.23
2018-07-19T12:11:41.348Z,55.72
2018-07-19T12:14:09.281Z,55.96
2018-07-19T12:16:37.402Z,54.85
2018-07-19T12:19:05.463Z,55.65
2018-07-19T12:21:33.375Z,55.61
2018-07-19T12:24:01.322Z,56.12
2018-07-19T12:26:29.271Z,56.77
2018-07-19T12:28:57.287Z,56.32
2018-07-19T12:31:25.197Z,56.44
2018-07-19T12:33:53.066Z,56.38
2018-07-19T12:36:20.979Z,56.21
2018-07-19T12:38:48.980Z,56.12
2018-07-19T12:41:16.960Z,56.03
2018-07-19T12:43:44.861Z,56.59
2018-07-19T12:46:12.791Z,55.22
2018-07-19T12:48:40.750Z,53.56
2018-07-19T12:51:08.686Z,52.22
2018-07-19T12:53:36.823Z,50.48
2018-07-19T12:56:04.737Z,50.85
2018-07-19T12:58:32.617Z,51.71
2018-07-19T13:01:00.753Z,51.44
2018-07-19T13:03:29.304Z,51.67
2018-07-19T13:05:57.336Z,50.53
2018-07-19T13:08:25.341Z,49.28
2018-07-19T13:10:53.249Z,49.29
2018-07-19T13:13:21.137Z,48.18
2018-07-19T13:15:49.047Z,48.01
2018-07-19T13:18:16.959Z,49.50
2018-07-19T13:20:44.893Z,49.87
2018-07-19T13:23:12.855Z,51.05
2018-07-19T13:25:40.877Z,52.88
2018-07-19T13:28:08.872Z,53.13
2018-07-19T13:30:36.955Z,52.32
2018-07-19T13:33:04.892Z,54.03
2018-07-19T13:35:32.813Z,55.31
2018-07-19T13:38:02.544Z,55.25
2018-07-19T13:40:31.852Z,56.43
2018-07-19T13:42:59.785Z,56.57
2018-07-19T13:45:27.747Z,56.57
2018-07-19T13:47:55.677Z,55.87
2018-07-19T13:50:23.582Z,56.10
2018-07-19T13:53:02.416Z,55.65
2018-07-19T13:55:30.324Z,53.57
2018-07-19T13:57:58.204Z,53.93
2018-07-19T14:00:26.171Z,52.37
2018-07-19T14:02:54.045Z,50.85
2018-07-19T14:05:21.944Z,50.45
2018-07-19T14:07:51.043Z,50.75
2018-07-19T14:10:18.953Z,53.14
2018-07-19T14:12:46.844Z,54.96
2018-07-19T14:15:14.781Z,54.45
2018-07-19T14:17:42.686Z,54.98
2018-07-19T14:20:10.573Z,56.71
2018-07-19T14:22:38.498Z,57.20
2018-07-19T14:25:06.430Z,57.21
2018-07-19T14:27:34.318Z,56.97
2018-07-19T14:30:02.871Z,57.99
2018-07-19T14:32:30.761Z,57.73
2018-07-19T14:34:58.790Z,56.44
2018-07-19T14:37:26.786Z,54.54
2018-07-19T14:39:54.694Z,52.75
2018-07-19T14:42:22.609Z,52.99
2018-07-19T14:44:50.533Z,54.66
2018-07-19T14:47:18.408Z,56.40
2018-07-19T14:49:46.284Z,56.47
2018-07-19T14:52:14.324Z,57.26
2018-07-19T14:54:42.227Z,56.64
2018-07-19T14:57:10.128Z,56.13
2018-07-19T14:59:38.096Z,55.88
2018-07-19T15:02:06.067Z,55.62
2018-07-19T15:04:33.979Z,53.48
2018-07-19T15:07:01.968Z,51.33
2018-07-19T15:09:29.934Z,48.04
2018-07-19T15:11:57.821Z,47.34
2018-07-19T15:14:25.939Z,46.85
2018-07-19T15:16:53.837Z,48.10
2018-07-19T15:19:21.746Z,46.82
2018-07-19T15:21:49.659Z,46.63
2018-07-19T15:24:17.542Z,47.21
2018-07-19T15:26:45.432Z,48.76
2018-07-19T15:29:13.343Z,47.10
2018-07-19T15:31:41.377Z,47.53
2018-07-19T15:34:09.498Z,46.76
2018-07-19T15:36:38.479Z,47.57
2018-07-19T15:39:07.657Z,49.92
2018-07-19T15:41:35.541Z,52.78
2018-07-19T15:44:03.539Z,53.64
2018-07-19T15:46:31.420Z,55.50
2018-07-19T15:48:59.298Z,56.02
2018-07-19T15:51:27.235Z,56.17
2018-07-19T15:53:55.159Z,57.24
2018-07-19T15:56:23.022Z,56.90
2018-07-19T15:58:51.015Z,57.73
2018-07-19T16:01:18.931Z,57.31
2018-07-19T16:03:46.821Z,57.47
2018-07-19T16:06:14.744Z,57.00
2018-07-19T16:08:42.821Z,57.86
2018-07-19T16:11:11.072Z,57.39
2018-07-19T16:13:39.003Z,57.61
2018-07-19T16:16:06.937Z,57.73
2018-07-19T16:18:34.824Z,58.46
2018-07-19T16:21:03.139Z,59.00
2018-07-19T16:23:31.011Z,59.40
2018-07-19T16:25:59.050Z,59.67
2018-07-19T16:28:27.013Z,60.18
2018-07-19T16:30:54.881Z,60.54
2018-07-19T16:33:22.782Z,61.18
2018-07-19T16:35:50.750Z,61.63
2018-07-19T16:38:19.182Z,62.01
2018-07-19T16:40:47.557Z,61.59
2018-07-19T16:43:16.460Z,62.08
2018-07-19T16:45:45.008Z,61.80
2018-07-19T16:48:12.916Z,61.78
2018-07-19T16:50:40.852Z,61.83
2018-07-19T16:53:08.760Z,62.05
2018-07-19T16:55:36.666Z,63.17
2018-07-19T16:58:04.647Z,63.00
2018-07-19T17:00:32.611Z,63.39
2018-07-19T17:03:00.515Z,64.22
2018-07-19T17:05:28.532Z,64.50
2018-07-19T17:07:56.420Z,64.32
2018-07-19T17:10:24.332Z,63.83
2018-07-19T17:12:52.501Z,63.58
2018-07-19T17:15:20.410Z,63.41
2018-07-19T17:17:48.319Z,64.79
2018-07-19T17:20:16.320Z,64.14
2018-07-19T17:22:44.670Z,64.39
2018-07-19T17:25:12.577Z,64.62
2018-07-19T17:27:40.570Z,64.24
2018-07-19T17:30:08.481Z,64.53
2018-07-19T17:32:36.950Z,64.79
2018-07-19T17:35:04.921Z,64.11
2018-07-19T17:37:32.844Z,64.81
2018-07-19T17:40:00.767Z,64.51
2018-07-19T17:42:28.770Z,63.91
2018-07-19T17:44:56.657Z,65.28
2018-07-19T17:47:24.568Z,64.24
2018-07-19T17:49:52.604Z,64.55
2018-07-19T17:52:20.514Z,64.86
2018-07-19T17:54:48.830Z,65.31
2018-07-19T17:57:16.805Z,65.19
2018-07-19T17:59:44.771Z,66.62
2018-07-19T18:02:12.714Z,64.93
2018-07-19T18:04:40.720Z,65.84
2018-07-19T18:07:08.763Z,65.42
2018-07-19T18:09:36.774Z,65.30
2018-07-19T18:12:04.821Z,66.43
2018-07-19T18:14:32.873Z,66.45
2018-07-19T18:17:00.828Z,66.35
2018-07-19T18:19:28.935Z,67.82
2018-07-19T18:21:56.970Z,67.65
2018-07-19T18:24:25.101Z,67.99
2018-07-19T18:26:53.132Z,68.22
2018-07-19T18:29:21.805Z,68.66
2018-07-19T18:31:50.431Z,68.56
2018-07-19T18:34:18.547Z,69.12
2018-07-19T18:36:46.407Z,69.53
2018-07-19T18:39:14.322Z,69.84
2018-07-19T18:41:42.261Z,70.02
2018-07-19T18:44:10.237Z,69.77
2018-07-19T18:46:38.186Z,70.65
2018-07-19T18:49:07.115Z,70.80
2018-07-19T18:51:35.026Z,70.76
2018-07-19T18:54:03.565Z,70.63
2018-07-19T18:56:31.765Z,70.47
2018-07-19T18:59:00.397Z,71.17
2018-07-19T19:01:28.366Z,71.14
2018-07-19T19:03:56.363Z,70.60
2018-07-19T19:06:24.999Z,71.49
2018-07-19T19:08:52.950Z,71.30
2018-07-19T19:11:21.017Z,70.96
2018-07-19T19:13:49.109Z,71.16
2018-07-19T19:16:18.413Z,71.77
2018-07-19T19:18:46.653Z,71.71
2018-07-19T19:21:15.569Z,71.83
2018-07-19T19:23:43.593Z,72.11
2018-07-19T19:26:11.599Z,72.08
2018-07-19T19:28:39.545Z,72.60
2018-07-19T19:31:07.516Z,72.39
2018-07-19T19:33:36.871Z,72.85
2018-07-19T19:36:04.917Z,73.11
2018-07-19T19:38:32.837Z,73.00
2018-07-19T19:41:00.781Z,73.25
2018-07-19T19:43:29.680Z,73.28
2018-07-19T19:45:57.658Z,72.88
2018-07-19T19:48:25.744Z,73.35
2018-07-19T19:50:53.816Z,73.44
2018-07-19T19:53:22.192Z,73.36
2018-07-19T19:55:50.169Z,73.92
2018-07-19T19:58:18.083Z,74.01
2018-07-19T20:00:52.262Z,73.94
2018-07-19T20:03:26.336Z,74.72
2018-07-19T20:06:00.324Z,74.06
2018-07-19T20:08:34.245Z,74.31
2018-07-19T20:11:11.315Z,74.81
2018-07-19T20:13:51.892Z,74.82
2018-07-19T20:16:26.232Z,74.28
2018-07-19T20:19:03.164Z,74.31
2018-07-19T20:21:39.556Z,73.81
2018-07-19T20:24:13.672Z,73.75
2018-07-19T20:26:50.905Z,74.08
2018-07-19T20:29:25.516Z,74.64
2018-07-19T20:32:01.134Z,74.73
2018-07-19T20:34:35.611Z,75.12
2018-07-19T20:37:09.742Z,75.08
2018-07-19T20:39:43.665Z,75.26
2018-07-19T20:42:17.986Z,75.16
2018-07-19T20:44:51.955Z,75.93
2018-07-19T20:47:26.058Z,75.62
2018-07-19T20:50:00.300Z,75.61
2018-07-19T20:52:34.234Z,76.14
2018-07-19T20:55:08.893Z,76.29
2018-07-19T20:57:42.863Z,76.70
2018-07-19T21:00:16.827Z,77.27
2018-07-19T21:02:51.153Z,76.95
2018-07-19T21:05:25.077Z,76.99
2018-07-19T21:07:58.920Z,77.06
2018-07-19T21:10:33.449Z,77.54
2018-07-19T21:13:07.378Z,77.63
2018-07-19T21:15:41.380Z,77.89
2018-07-19T21:18:15.649Z,77.99
2018-07-19T21:20:49.625Z,78.39
2018-07-19T21:23:23.713Z,78.24
2018-07-19T21:25:57.636Z,79.01
2018-07-19T21:28:31.766Z,78.90
2018-07-19T21:31:06.072Z,78.55
2018-07-19T21:33:40.193Z,79.49
2018-07-19T21:36:14.111Z,79.44
2018-07-19T21:38:48.211Z,79.20
2018-07-19T21:41:22.118Z,79.21
2018-07-19T21:43:56.220Z,79.02
2018-07-19T21:46:30.175Z,78.58
2018-07-19T21:49:04.762Z,78.32
2018-07-19T21:51:39.028Z,78.08
2018-07-19T21:54:14.123Z,78.53
2018-07-19T21:56:48.011Z,79.21
2018-07-19T21:59:21.983Z,78.81
2018-07-19T22:01:57.000Z,78.54
2018-07-19T22:04:31.112Z,78.67
2018-07-19T22:07:05.448Z,79.58
2018-07-19T22:09:39.508Z,79.60
2018-07-19T22:12:13.455Z,79.29
2018-07-19T22:14:47.497Z,79.04
2018-07-19T22:17:21.729Z,79.10
2018-07-19T22:19:56.033Z,79.05
2018-07-19T22:22:29.990Z,79.44
2018-07-19T22:25:04.261Z,78.89
2018-07-19T22:27:38.397Z,79.82
2018-07-19T22:30:12.296Z,80.93
2018-07-19T22:32:46.246Z,80.35
2018-07-19T22:35:20.319Z,79.68
2018-07-19T22:37:59.282Z,79.35
2018-07-19T22:40:33.409Z,78.57
2018-07-19T22:43:07.322Z,78.83
2018-07-19T22:45:41.255Z,79.11
2018-07-19T22:48:15.127Z,78.85
2018-07-19T22:50:49.152Z,78.93
2018-07-19T22:53:22.942Z,79.21
2018-07-19T22:55:56.948Z,79.26
2018-07-19T22:58:30.993Z,79.25
2018-07-19T23:01:05.140Z,79.32
2018-07-19T23:03:39.168Z,79.49
2018-07-19T23:06:13.206Z,80.01
2018-07-19T23:08:47.460Z,79.88
2018-07-19T23:11:21.394Z,79.35
2018-07-19T23:13:55.416Z,80.18
2018-07-19T23:16:29.293Z,80.11
2018-07-19T23:19:03.364Z,79.60
2018-07-19T23:21:37.462Z,79.53
2018-07-19T23:24:11.343Z,80.72
2018-07-19T23:26:45.419Z,80.08
2018-07-19T23:29:19.348Z,79.81
2018-07-19T23:31:53.325Z,80.34
2018-07-19T23:34:27.457Z,80.38
2018-07-19T23:37:05.164Z,80.05
2018-07-19T23:39:44.743Z,80.33
2018-07-19T23:42:24.098Z,80.28
2018-07-19T23:45:08.871Z,80.27
2018-07-19T23:47:43.999Z,80.28
2018-07-19T23:50:17.941Z,80.88
2018-07-19T23:52:52.024Z,80.58
2018-07-19T23:55:25.931Z,80.80
2018-07-19T23:57:59.910Z,80.88
